sensor_id;sensor_type;location;lat;lon;timestamp;P1;durP1;ratioP1;P2;durP2;ratioP2
37451;SDS011;23314;51.114;6.900;2024-03-22T00:01:51;32.47;;;21.23;;
37451;SDS011;23314;51.114;6.900;2024-03-22T00:04:17;37.73;;;22.10;;
37451;SDS011;23314;51.114;6.900;2024-03-22T00:06:43;37.33;;;23.20;;
37451;SDS011;23314;51.114;6.900;2024-03-22T00:09:10;33.80;;;21.67;;
37451;SDS011;23314;51.114;6.900;2024-03-22T00:11:36;38.47;;;22.47;;
37451;SDS011;23314;51.114;6.900;2024-03-22T00:14:02;36.73;;;21.30;;
37451;SDS011;23314;51.114;6.900;2024-03-22T00:16:28;35.60;;;21.37;;
37451;SDS011;23314;51.114;6.900;2024-03-22T00:18:53;34.33;;;21.63;;
37451;SDS011;23314;51.114;6.900;2024-03-22T00:21:19;33.17;;;21.13;;
37451;SDS011;23314;51.114;6.900;2024-03-22T00:23:44;37.13;;;21.67;;
37451;SDS011;23314;51.114;6.900;2024-03-22T00:26:10;32.33;;;19.47;;
37451;SDS011;23314;51.114;6.900;2024-03-22T00:28:35;37.27;;;21.47;;
37451;SDS011;23314;51.114;6.900;2024-03-22T00:31:00;33.17;;;20.83;;
37451;SDS011;23314;51.114;6.900;2024-03-22T00:33:26;37.33;;;21.57;;
37451;SDS011;23314;51.114;6.900;2024-03-22T00:35:51;32.27;;;21.37;;
37451;SDS011;23314;51.114;6.900;2024-03-22T00:38:16;35.43;;;20.63;;
37451;SDS011;23314;51.114;6.900;2024-03-22T00:40:42;31.43;;;21.23;;
37451;SDS011;23314;51.114;6.900;2024-03-22T00:43:07;38.00;;;22.57;;
37451;SDS011;23314;51.114;6.900;2024-03-22T00:45:32;33.40;;;21.07;;
37451;SDS011;23314;51.114;6.900;2024-03-22T00:47:58;32.40;;;20.30;;
37451;SDS011;23314;51.114;6.900;2024-03-22T00:50:23;30.07;;;20.63;;
37451;SDS011;23314;51.114;6.900;2024-03-22T00:52:50;38.40;;;23.47;;
37451;SDS011;23314;51.114;6.900;2024-03-22T00:55:15;32.73;;;20.17;;
37451;SDS011;23314;51.114;6.900;2024-03-22T00:57:40;32.57;;;20.70;;
37451;SDS011;23314;51.114;6.900;2024-03-22T01:00:06;34.83;;;21.50;;
37451;SDS011;23314;51.114;6.900;2024-03-22T01:02:32;34.67;;;21.10;;
37451;SDS011;23314;51.114;6.900;2024-03-22T01:04:57;34.70;;;22.20;;
37451;SDS011;23314;51.114;6.900;2024-03-22T01:07:23;30.53;;;21.67;;
37451;SDS011;23314;51.114;6.900;2024-03-22T01:09:48;31.27;;;21.40;;
37451;SDS011;23314;51.114;6.900;2024-03-22T01:12:13;32.47;;;22.73;;
37451;SDS011;23314;51.114;6.900;2024-03-22T01:14:39;32.63;;;21.63;;
37451;SDS011;23314;51.114;6.900;2024-03-22T01:17:04;35.10;;;21.90;;
37451;SDS011;23314;51.114;6.900;2024-03-22T01:19:29;30.03;;;20.70;;
37451;SDS011;23314;51.114;6.900;2024-03-22T01:21:55;34.93;;;22.47;;
37451;SDS011;23314;51.114;6.900;2024-03-22T01:24:20;32.47;;;21.37;;
37451;SDS011;23314;51.114;6.900;2024-03-22T01:26:45;32.37;;;21.80;;
37451;SDS011;23314;51.114;6.900;2024-03-22T01:29:11;31.00;;;21.17;;
37451;SDS011;23314;51.114;6.900;2024-03-22T01:31:36;36.23;;;24.30;;
37451;SDS011;23314;51.114;6.900;2024-03-22T01:34:01;33.90;;;23.30;;
37451;SDS011;23314;51.114;6.900;2024-03-22T01:36:27;32.73;;;22.43;;
37451;SDS011;23314;51.114;6.900;2024-03-22T01:38:52;30.20;;;22.00;;
37451;SDS011;23314;51.114;6.900;2024-03-22T01:41:17;31.43;;;22.83;;
37451;SDS011;23314;51.114;6.900;2024-03-22T01:43:43;34.13;;;21.43;;
37451;SDS011;23314;51.114;6.900;2024-03-22T01:46:08;27.60;;;20.40;;
37451;SDS011;23314;51.114;6.900;2024-03-22T01:48:34;31.10;;;21.17;;
37451;SDS011;23314;51.114;6.900;2024-03-22T01:50:59;31.33;;;20.50;;
37451;SDS011;23314;51.114;6.900;2024-03-22T01:53:25;29.97;;;20.23;;
37451;SDS011;23314;51.114;6.900;2024-03-22T01:55:50;30.87;;;20.70;;
37451;SDS011;23314;51.114;6.900;2024-03-22T01:58:16;30.87;;;20.87;;
37451;SDS011;23314;51.114;6.900;2024-03-22T02:00:41;27.70;;;20.23;;
37451;SDS011;23314;51.114;6.900;2024-03-22T02:03:07;25.67;;;19.83;;
37451;SDS011;23314;51.114;6.900;2024-03-22T02:05:33;28.10;;;20.00;;
37451;SDS011;23314;51.114;6.900;2024-03-22T02:07:58;29.00;;;20.77;;
37451;SDS011;23314;51.114;6.900;2024-03-22T02:10:24;26.30;;;19.30;;
37451;SDS011;23314;51.114;6.900;2024-03-22T02:12:49;26.87;;;19.30;;
37451;SDS011;23314;51.114;6.900;2024-03-22T02:15:14;28.03;;;19.30;;
37451;SDS011;23314;51.114;6.900;2024-03-22T02:17:39;27.93;;;18.60;;
37451;SDS011;23314;51.114;6.900;2024-03-22T02:20:05;24.73;;;18.77;;
37451;SDS011;23314;51.114;6.900;2024-03-22T02:22:31;27.27;;;19.03;;
37451;SDS011;23314;51.114;6.900;2024-03-22T02:24:56;26.73;;;19.77;;
37451;SDS011;23314;51.114;6.900;2024-03-22T02:27:22;30.30;;;20.27;;
37451;SDS011;23314;51.114;6.900;2024-03-22T02:29:47;24.87;;;18.07;;
37451;SDS011;23314;51.114;6.900;2024-03-22T02:32:12;25.10;;;19.57;;
37451;SDS011;23314;51.114;6.900;2024-03-22T02:34:38;24.90;;;18.47;;
37451;SDS011;23314;51.114;6.900;2024-03-22T02:37:03;24.57;;;18.20;;
37451;SDS011;23314;51.114;6.900;2024-03-22T02:39:29;25.80;;;17.17;;
37451;SDS011;23314;51.114;6.900;2024-03-22T02:41:55;26.93;;;20.03;;
37451;SDS011;23314;51.114;6.900;2024-03-22T02:44:20;24.60;;;18.27;;
37451;SDS011;23314;51.114;6.900;2024-03-22T02:46:46;24.47;;;18.53;;
37451;SDS011;23314;51.114;6.900;2024-03-22T02:49:11;26.90;;;18.80;;
37451;SDS011;23314;51.114;6.900;2024-03-22T02:51:36;26.13;;;18.83;;
37451;SDS011;23314;51.114;6.900;2024-03-22T02:54:02;27.73;;;18.90;;
37451;SDS011;23314;51.114;6.900;2024-03-22T02:56:27;26.77;;;18.93;;
37451;SDS011;23314;51.114;6.900;2024-03-22T02:58:52;25.80;;;18.87;;
37451;SDS011;23314;51.114;6.900;2024-03-22T03:01:18;24.47;;;18.40;;
37451;SDS011;23314;51.114;6.900;2024-03-22T03:03:43;24.60;;;19.17;;
37451;SDS011;23314;51.114;6.900;2024-03-22T03:06:09;28.17;;;19.13;;
37451;SDS011;23314;51.114;6.900;2024-03-22T03:08:35;27.30;;;18.43;;
37451;SDS011;23314;51.114;6.900;2024-03-22T03:11:00;25.70;;;19.10;;
37451;SDS011;23314;51.114;6.900;2024-03-22T03:13:25;24.77;;;17.93;;
37451;SDS011;23314;51.114;6.900;2024-03-22T03:15:51;24.87;;;18.70;;
37451;SDS011;23314;51.114;6.900;2024-03-22T03:18:16;24.07;;;17.83;;
37451;SDS011;23314;51.114;6.900;2024-03-22T03:20:42;26.90;;;19.20;;
37451;SDS011;23314;51.114;6.900;2024-03-22T03:23:07;22.80;;;17.00;;
37451;SDS011;23314;51.114;6.900;2024-03-22T03:25:33;31.77;;;18.33;;
37451;SDS011;23314;51.114;6.900;2024-03-22T03:27:58;20.77;;;16.53;;
37451;SDS011;23314;51.114;6.900;2024-03-22T03:30:23;24.30;;;17.43;;
37451;SDS011;23314;51.114;6.900;2024-03-22T03:32:49;26.67;;;18.33;;
37451;SDS011;23314;51.114;6.900;2024-03-22T03:35:14;27.20;;;19.73;;
37451;SDS011;23314;51.114;6.900;2024-03-22T03:37:39;23.33;;;17.60;;
37451;SDS011;23314;51.114;6.900;2024-03-22T03:40:05;26.30;;;18.13;;
37451;SDS011;23314;51.114;6.900;2024-03-22T03:42:31;23.40;;;17.53;;
37451;SDS011;23314;51.114;6.900;2024-03-22T03:44:56;23.60;;;17.43;;
37451;SDS011;23314;51.114;6.900;2024-03-22T03:47:21;27.57;;;18.87;;
37451;SDS011;23314;51.114;6.900;2024-03-22T03:49:47;25.80;;;18.50;;
37451;SDS011;23314;51.114;6.900;2024-03-22T03:52:12;26.67;;;18.37;;
37451;SDS011;23314;51.114;6.900;2024-03-22T03:54:38;23.17;;;16.27;;
37451;SDS011;23314;51.114;6.900;2024-03-22T03:57:03;21.40;;;16.37;;
37451;SDS011;23314;51.114;6.900;2024-03-22T03:59:29;27.83;;;18.13;;
37451;SDS011;23314;51.114;6.900;2024-03-22T04:01:54;22.50;;;17.20;;
37451;SDS011;23314;51.114;6.900;2024-03-22T04:04:20;23.10;;;16.50;;
37451;SDS011;23314;51.114;6.900;2024-03-22T04:06:45;21.60;;;16.97;;
37451;SDS011;23314;51.114;6.900;2024-03-22T04:09:10;23.63;;;17.47;;
37451;SDS011;23314;51.114;6.900;2024-03-22T04:11:36;23.80;;;18.30;;
37451;SDS011;23314;51.114;6.900;2024-03-22T04:14:02;23.30;;;17.67;;
37451;SDS011;23314;51.114;6.900;2024-03-22T04:16:28;24.47;;;18.17;;
37451;SDS011;23314;51.114;6.900;2024-03-22T04:18:53;23.13;;;16.70;;
37451;SDS011;23314;51.114;6.900;2024-03-22T04:21:18;24.17;;;17.53;;
37451;SDS011;23314;51.114;6.900;2024-03-22T04:23:44;26.57;;;18.13;;
37451;SDS011;23314;51.114;6.900;2024-03-22T04:26:10;25.23;;;18.27;;
37451;SDS011;23314;51.114;6.900;2024-03-22T04:28:35;22.37;;;15.80;;
37451;SDS011;23314;51.114;6.900;2024-03-22T04:31:04;23.13;;;16.77;;
37451;SDS011;23314;51.114;6.900;2024-03-22T04:33:31;20.63;;;16.93;;
37451;SDS011;23314;51.114;6.900;2024-03-22T04:35:57;21.93;;;16.67;;
37451;SDS011;23314;51.114;6.900;2024-03-22T04:38:24;29.80;;;18.80;;
37451;SDS011;23314;51.114;6.900;2024-03-22T04:40:51;23.93;;;15.43;;
37451;SDS011;23314;51.114;6.900;2024-03-22T04:43:17;26.57;;;17.23;;
37451;SDS011;23314;51.114;6.900;2024-03-22T04:45:42;23.47;;;17.90;;
37451;SDS011;23314;51.114;6.900;2024-03-22T04:48:08;24.57;;;17.10;;
37451;SDS011;23314;51.114;6.900;2024-03-22T04:50:34;21.57;;;16.10;;
37451;SDS011;23314;51.114;6.900;2024-03-22T04:53:00;24.13;;;16.87;;
37451;SDS011;23314;51.114;6.900;2024-03-22T04:55:25;21.20;;;15.40;;
37451;SDS011;23314;51.114;6.900;2024-03-22T04:57:51;26.77;;;16.53;;
37451;SDS011;23314;51.114;6.900;2024-03-22T05:00:17;22.70;;;15.77;;
37451;SDS011;23314;51.114;6.900;2024-03-22T05:02:43;23.27;;;15.50;;
37451;SDS011;23314;51.114;6.900;2024-03-22T05:05:08;24.07;;;15.23;;
37451;SDS011;23314;51.114;6.900;2024-03-22T05:07:33;26.07;;;15.67;;
37451;SDS011;23314;51.114;6.900;2024-03-22T05:09:59;23.87;;;15.90;;
37451;SDS011;23314;51.114;6.900;2024-03-22T05:12:24;21.20;;;16.47;;
37451;SDS011;23314;51.114;6.900;2024-03-22T05:14:50;19.67;;;15.03;;
37451;SDS011;23314;51.114;6.900;2024-03-22T05:17:15;27.27;;;16.13;;
37451;SDS011;23314;51.114;6.900;2024-03-22T05:19:40;22.53;;;15.83;;
37451;SDS011;23314;51.114;6.900;2024-03-22T05:22:05;23.40;;;16.17;;
37451;SDS011;23314;51.114;6.900;2024-03-22T05:24:31;26.87;;;15.00;;
37451;SDS011;23314;51.114;6.900;2024-03-22T05:26:56;19.97;;;15.57;;
37451;SDS011;23314;51.114;6.900;2024-03-22T05:29:23;22.73;;;16.50;;
37451;SDS011;23314;51.114;6.900;2024-03-22T05:31:49;23.80;;;16.30;;
37451;SDS011;23314;51.114;6.900;2024-03-22T05:34:16;27.30;;;16.53;;
37451;SDS011;23314;51.114;6.900;2024-03-22T05:36:42;22.47;;;16.87;;
37451;SDS011;23314;51.114;6.900;2024-03-22T05:39:08;28.37;;;16.97;;
37451;SDS011;23314;51.114;6.900;2024-03-22T05:41:36;24.40;;;16.27;;
37451;SDS011;23314;51.114;6.900;2024-03-22T05:44:02;22.10;;;15.67;;
37451;SDS011;23314;51.114;6.900;2024-03-22T05:46:28;22.17;;;15.50;;
37451;SDS011;23314;51.114;6.900;2024-03-22T05:48:53;22.03;;;15.70;;
37451;SDS011;23314;51.114;6.900;2024-03-22T05:51:19;24.90;;;15.83;;
37451;SDS011;23314;51.114;6.900;2024-03-22T05:53:45;24.03;;;16.37;;
37451;SDS011;23314;51.114;6.900;2024-03-22T05:56:10;22.53;;;15.37;;
37451;SDS011;23314;51.114;6.900;2024-03-22T05:58:36;20.70;;;15.43;;
37451;SDS011;23314;51.114;6.900;2024-03-22T06:01:02;23.07;;;16.07;;
37451;SDS011;23314;51.114;6.900;2024-03-22T06:03:28;20.77;;;15.43;;
37451;SDS011;23314;51.114;6.900;2024-03-22T06:05:53;21.97;;;16.40;;
37451;SDS011;23314;51.114;6.900;2024-03-22T06:08:21;24.47;;;16.37;;
37451;SDS011;23314;51.114;6.900;2024-03-22T06:10:47;21.57;;;16.87;;
37451;SDS011;23314;51.114;6.900;2024-03-22T06:13:12;24.63;;;16.60;;
37451;SDS011;23314;51.114;6.900;2024-03-22T06:15:37;23.73;;;17.33;;
37451;SDS011;23314;51.114;6.900;2024-03-22T06:18:03;25.43;;;17.03;;
37451;SDS011;23314;51.114;6.900;2024-03-22T06:20:28;30.43;;;17.33;;
37451;SDS011;23314;51.114;6.900;2024-03-22T06:22:53;23.47;;;17.70;;
37451;SDS011;23314;51.114;6.900;2024-03-22T06:25:19;21.17;;;15.90;;
37451;SDS011;23314;51.114;6.900;2024-03-22T06:27:44;22.90;;;17.20;;
37451;SDS011;23314;51.114;6.900;2024-03-22T06:30:09;24.13;;;17.43;;
37451;SDS011;23314;51.114;6.900;2024-03-22T06:32:35;24.03;;;16.20;;
37451;SDS011;23314;51.114;6.900;2024-03-22T06:35:00;28.13;;;17.83;;
37451;SDS011;23314;51.114;6.900;2024-03-22T06:37:26;24.33;;;17.03;;
37451;SDS011;23314;51.114;6.900;2024-03-22T06:39:51;22.00;;;18.10;;
37451;SDS011;23314;51.114;6.900;2024-03-22T06:42:16;25.27;;;17.70;;
37451;SDS011;23314;51.114;6.900;2024-03-22T06:44:42;25.23;;;17.37;;
37451;SDS011;23314;51.114;6.900;2024-03-22T06:47:07;22.90;;;17.90;;
37451;SDS011;23314;51.114;6.900;2024-03-22T06:49:32;27.03;;;17.70;;
37451;SDS011;23314;51.114;6.900;2024-03-22T06:51:58;31.73;;;16.90;;
37451;SDS011;23314;51.114;6.900;2024-03-22T06:54:24;22.20;;;17.20;;
37451;SDS011;23314;51.114;6.900;2024-03-22T06:56:49;25.20;;;16.63;;
37451;SDS011;23314;51.114;6.900;2024-03-22T06:59:14;28.60;;;19.57;;
37451;SDS011;23314;51.114;6.900;2024-03-22T07:01:39;28.37;;;19.77;;
37451;SDS011;23314;51.114;6.900;2024-03-22T07:04:05;26.87;;;18.47;;
37451;SDS011;23314;51.114;6.900;2024-03-22T07:06:30;22.43;;;17.57;;
37451;SDS011;23314;51.114;6.900;2024-03-22T07:08:55;23.17;;;18.03;;
37451;SDS011;23314;51.114;6.900;2024-03-22T07:11:21;27.83;;;17.90;;
37451;SDS011;23314;51.114;6.900;2024-03-22T07:13:47;28.90;;;17.77;;
37451;SDS011;23314;51.114;6.900;2024-03-22T07:16:12;23.27;;;18.07;;
37451;SDS011;23314;51.114;6.900;2024-03-22T07:18:38;30.03;;;18.13;;
37451;SDS011;23314;51.114;6.900;2024-03-22T07:21:03;26.77;;;19.27;;
37451;SDS011;23314;51.114;6.900;2024-03-22T07:23:29;29.97;;;19.27;;
37451;SDS011;23314;51.114;6.900;2024-03-22T07:25:54;27.97;;;18.60;;
37451;SDS011;23314;51.114;6.900;2024-03-22T07:28:19;28.67;;;19.73;;
37451;SDS011;23314;51.114;6.900;2024-03-22T07:30:45;27.47;;;20.37;;
37451;SDS011;23314;51.114;6.900;2024-03-22T07:33:10;21.87;;;16.37;;
37451;SDS011;23314;51.114;6.900;2024-03-22T07:35:38;26.73;;;21.63;;
37451;SDS011;23314;51.114;6.900;2024-03-22T07:38:04;27.77;;;19.37;;
37451;SDS011;23314;51.114;6.900;2024-03-22T07:40:30;26.57;;;19.27;;
37451;SDS011;23314;51.114;6.900;2024-03-22T07:42:55;25.43;;;19.83;;
37451;SDS011;23314;51.114;6.900;2024-03-22T07:45:20;27.20;;;19.27;;
37451;SDS011;23314;51.114;6.900;2024-03-22T07:47:46;24.30;;;18.30;;
37451;SDS011;23314;51.114;6.900;2024-03-22T07:50:11;25.80;;;20.10;;
37451;SDS011;23314;51.114;6.900;2024-03-22T07:52:36;29.23;;;21.10;;
37451;SDS011;23314;51.114;6.900;2024-03-22T07:55:01;22.83;;;17.37;;
37451;SDS011;23314;51.114;6.900;2024-03-22T07:57:28;24.07;;;18.57;;
37451;SDS011;23314;51.114;6.900;2024-03-22T07:59:56;25.07;;;18.70;;
37451;SDS011;23314;51.114;6.900;2024-03-22T08:02:22;21.03;;;15.80;;
37451;SDS011;23314;51.114;6.900;2024-03-22T08:04:47;23.63;;;15.63;;
37451;SDS011;23314;51.114;6.900;2024-03-22T08:07:13;21.92;;;14.23;;
37451;SDS011;23314;51.114;6.900;2024-03-22T08:09:39;19.23;;;15.43;;
37451;SDS011;23314;51.114;6.900;2024-03-22T08:12:05;16.60;;;13.30;;
37451;SDS011;23314;51.114;6.900;2024-03-22T08:14:31;17.95;;;16.02;;
37451;SDS011;23314;51.114;6.900;2024-03-22T08:16:56;19.08;;;15.75;;
37451;SDS011;23314;51.114;6.900;2024-03-22T08:19:22;18.58;;;14.75;;
37451;SDS011;23314;51.114;6.900;2024-03-22T08:21:47;17.03;;;12.67;;
37451;SDS011;23314;51.114;6.900;2024-03-22T08:24:12;18.42;;;13.70;;
37451;SDS011;23314;51.114;6.900;2024-03-22T08:26:38;14.25;;;12.82;;
37451;SDS011;23314;51.114;6.900;2024-03-22T08:29:03;17.02;;;14.88;;
37451;SDS011;23314;51.114;6.900;2024-03-22T08:31:28;19.52;;;15.05;;
37451;SDS011;23314;51.114;6.900;2024-03-22T08:33:54;18.75;;;14.10;;
37451;SDS011;23314;51.114;6.900;2024-03-22T08:36:21;16.10;;;13.55;;
37451;SDS011;23314;51.114;6.900;2024-03-22T08:38:46;16.52;;;14.23;;
37451;SDS011;23314;51.114;6.900;2024-03-22T08:41:12;21.15;;;14.25;;
37451;SDS011;23314;51.114;6.900;2024-03-22T08:43:37;18.08;;;12.70;;
37451;SDS011;23314;51.114;6.900;2024-03-22T08:46:02;16.35;;;13.20;;
37451;SDS011;23314;51.114;6.900;2024-03-22T08:48:28;16.25;;;13.85;;
37451;SDS011;23314;51.114;6.900;2024-03-22T08:50:54;18.20;;;15.25;;
37451;SDS011;23314;51.114;6.900;2024-03-22T08:53:19;16.13;;;13.80;;
37451;SDS011;23314;51.114;6.900;2024-03-22T08:55:48;22.40;;;14.48;;
37451;SDS011;23314;51.114;6.900;2024-03-22T08:58:14;14.63;;;12.38;;
37451;SDS011;23314;51.114;6.900;2024-03-22T09:00:43;17.60;;;14.30;;
37451;SDS011;23314;51.114;6.900;2024-03-22T09:03:08;17.38;;;13.10;;
37451;SDS011;23314;51.114;6.900;2024-03-22T09:05:34;18.40;;;13.43;;
37451;SDS011;23314;51.114;6.900;2024-03-22T09:07:59;16.75;;;13.88;;
37451;SDS011;23314;51.114;6.900;2024-03-22T09:10:25;18.42;;;14.15;;
37451;SDS011;23314;51.114;6.900;2024-03-22T09:12:51;14.52;;;12.35;;
37451;SDS011;23314;51.114;6.900;2024-03-22T09:15:16;14.13;;;11.60;;
37451;SDS011;23314;51.114;6.900;2024-03-22T09:17:42;17.60;;;13.73;;
37451;SDS011;23314;51.114;6.900;2024-03-22T09:20:07;16.55;;;13.35;;
37451;SDS011;23314;51.114;6.900;2024-03-22T09:22:33;16.52;;;12.35;;
37451;SDS011;23314;51.114;6.900;2024-03-22T09:24:59;18.83;;;12.60;;
37451;SDS011;23314;51.114;6.900;2024-03-22T09:27:24;17.75;;;12.63;;
37451;SDS011;23314;51.114;6.900;2024-03-22T09:29:50;16.70;;;12.90;;
37451;SDS011;23314;51.114;6.900;2024-03-22T09:32:15;16.67;;;12.50;;
37451;SDS011;23314;51.114;6.900;2024-03-22T09:34:40;15.38;;;13.07;;
37451;SDS011;23314;51.114;6.900;2024-03-22T09:37:07;13.40;;;12.00;;
37451;SDS011;23314;51.114;6.900;2024-03-22T09:39:33;16.60;;;11.05;;
37451;SDS011;23314;51.114;6.900;2024-03-22T09:41:58;15.73;;;11.35;;
37451;SDS011;23314;51.114;6.900;2024-03-22T09:44:26;14.25;;;11.50;;
37451;SDS011;23314;51.114;6.900;2024-03-22T09:46:52;13.60;;;11.55;;
37451;SDS011;23314;51.114;6.900;2024-03-22T09:49:17;16.85;;;12.38;;
37451;SDS011;23314;51.114;6.900;2024-03-22T09:51:43;14.13;;;10.90;;
37451;SDS011;23314;51.114;6.900;2024-03-22T09:54:09;12.77;;;11.20;;
37451;SDS011;23314;51.114;6.900;2024-03-22T09:56:35;16.88;;;11.20;;
37451;SDS011;23314;51.114;6.900;2024-03-22T09:59:03;13.40;;;10.77;;
37451;SDS011;23314;51.114;6.900;2024-03-22T10:01:29;15.95;;;11.32;;
37451;SDS011;23314;51.114;6.900;2024-03-22T10:03:55;13.27;;;11.20;;
37451;SDS011;23314;51.114;6.900;2024-03-22T10:06:20;15.10;;;11.98;;
37451;SDS011;23314;51.114;6.900;2024-03-22T10:08:46;16.00;;;11.93;;
37451;SDS011;23314;51.114;6.900;2024-03-22T10:11:11;13.60;;;11.32;;
37451;SDS011;23314;51.114;6.900;2024-03-22T10:13:37;17.15;;;11.93;;
37451;SDS011;23314;51.114;6.900;2024-03-22T10:16:02;14.15;;;11.65;;
37451;SDS011;23314;51.114;6.900;2024-03-22T10:18:28;18.52;;;12.00;;
37451;SDS011;23314;51.114;6.900;2024-03-22T10:21:03;17.77;;;11.45;;
37451;SDS011;23314;51.114;6.900;2024-03-22T10:23:30;18.30;;;11.82;;
37451;SDS011;23314;51.114;6.900;2024-03-22T10:25:56;17.30;;;11.52;;
37451;SDS011;23314;51.114;6.900;2024-03-22T10:28:24;13.75;;;11.60;;
37451;SDS011;23314;51.114;6.900;2024-03-22T10:30:50;14.32;;;11.25;;
37451;SDS011;23314;51.114;6.900;2024-03-22T10:33:18;16.60;;;12.07;;
37451;SDS011;23314;51.114;6.900;2024-03-22T10:35:44;15.82;;;12.27;;
37451;SDS011;23314;51.114;6.900;2024-03-22T10:38:09;14.38;;;12.00;;
37451;SDS011;23314;51.114;6.900;2024-03-22T10:40:38;16.33;;;12.98;;
37451;SDS011;23314;51.114;6.900;2024-03-22T10:43:04;17.13;;;13.32;;
37451;SDS011;23314;51.114;6.900;2024-03-22T10:45:29;17.77;;;13.50;;
37451;SDS011;23314;51.114;6.900;2024-03-22T10:47:55;15.40;;;12.98;;
37451;SDS011;23314;51.114;6.900;2024-03-22T10:50:21;12.05;;;10.85;;
37451;SDS011;23314;51.114;6.900;2024-03-22T10:52:50;14.77;;;12.07;;
37451;SDS011;23314;51.114;6.900;2024-03-22T10:55:20;19.45;;;13.52;;
37451;SDS011;23314;51.114;6.900;2024-03-22T10:57:49;16.00;;;13.80;;
37451;SDS011;23314;51.114;6.900;2024-03-22T11:00:15;13.90;;;12.43;;
37451;SDS011;23314;51.114;6.900;2024-03-22T11:02:52;17.13;;;13.80;;
37451;SDS011;23314;51.114;6.900;2024-03-22T11:05:18;19.05;;;14.00;;
37451;SDS011;23314;51.114;6.900;2024-03-22T11:07:44;20.08;;;12.88;;
37451;SDS011;23314;51.114;6.900;2024-03-22T11:10:12;14.23;;;11.23;;
37451;SDS011;23314;51.114;6.900;2024-03-22T11:12:41;19.15;;;16.55;;
37451;SDS011;23314;51.114;6.900;2024-03-22T11:15:07;19.85;;;16.23;;
37451;SDS011;23314;51.114;6.900;2024-03-22T11:17:34;22.60;;;16.08;;
37451;SDS011;23314;51.114;6.900;2024-03-22T11:19:59;19.15;;;16.02;;
37451;SDS011;23314;51.114;6.900;2024-03-22T11:22:25;25.10;;;17.85;;
37451;SDS011;23314;51.114;6.900;2024-03-22T11:24:52;19.48;;;16.10;;
37451;SDS011;23314;51.114;6.900;2024-03-22T11:27:17;20.10;;;17.20;;
37451;SDS011;23314;51.114;6.900;2024-03-22T11:29:43;19.08;;;16.52;;
37451;SDS011;23314;51.114;6.900;2024-03-22T11:32:11;18.58;;;16.38;;
37451;SDS011;23314;51.114;6.900;2024-03-22T11:34:37;18.55;;;15.73;;
37451;SDS011;23314;51.114;6.900;2024-03-22T11:37:04;19.70;;;15.73;;
37451;SDS011;23314;51.114;6.900;2024-03-22T11:39:32;19.80;;;15.23;;
37451;SDS011;23314;51.114;6.900;2024-03-22T11:41:59;21.85;;;15.98;;
37451;SDS011;23314;51.114;6.900;2024-03-22T11:44:26;17.02;;;14.95;;
37451;SDS011;23314;51.114;6.900;2024-03-22T11:46:52;18.90;;;15.20;;
37451;SDS011;23314;51.114;6.900;2024-03-22T11:49:17;17.98;;;15.20;;
37451;SDS011;23314;51.114;6.900;2024-03-22T11:51:44;17.60;;;15.02;;
37451;SDS011;23314;51.114;6.900;2024-03-22T11:54:10;17.60;;;15.30;;
37451;SDS011;23314;51.114;6.900;2024-03-22T11:56:35;20.77;;;16.58;;
37451;SDS011;23314;51.114;6.900;2024-03-22T11:59:01;18.48;;;15.52;;
37451;SDS011;23314;51.114;6.900;2024-03-22T12:01:28;17.55;;;15.00;;
37451;SDS011;23314;51.114;6.900;2024-03-22T12:03:53;15.70;;;14.18;;
37451;SDS011;23314;51.114;6.900;2024-03-22T12:06:19;18.83;;;15.15;;
37451;SDS011;23314;51.114;6.900;2024-03-22T12:08:45;17.45;;;15.65;;
37451;SDS011;23314;51.114;6.900;2024-03-22T12:11:11;22.70;;;15.63;;
37451;SDS011;23314;51.114;6.900;2024-03-22T12:13:37;16.85;;;14.93;;
37451;SDS011;23314;51.114;6.900;2024-03-22T12:16:03;20.42;;;16.55;;
37451;SDS011;23314;51.114;6.900;2024-03-22T12:18:29;18.33;;;15.10;;
37451;SDS011;23314;51.114;6.900;2024-03-22T12:20:54;19.83;;;15.52;;
37451;SDS011;23314;51.114;6.900;2024-03-22T12:23:19;19.45;;;15.48;;
37451;SDS011;23314;51.114;6.900;2024-03-22T12:25:45;17.50;;;14.00;;
37451;SDS011;23314;51.114;6.900;2024-03-22T12:28:10;16.27;;;14.07;;
37451;SDS011;23314;51.114;6.900;2024-03-22T12:30:35;15.70;;;13.75;;
37451;SDS011;23314;51.114;6.900;2024-03-22T12:33:01;18.65;;;15.15;;
37451;SDS011;23314;51.114;6.900;2024-03-22T12:35:26;17.38;;;15.55;;
37451;SDS011;23314;51.114;6.900;2024-03-22T12:37:52;18.75;;;14.40;;
37451;SDS011;23314;51.114;6.900;2024-03-22T12:40:18;15.60;;;13.25;;
37451;SDS011;23314;51.114;6.900;2024-03-22T12:42:43;16.42;;;14.60;;
37451;SDS011;23314;51.114;6.900;2024-03-22T12:45:08;16.98;;;15.02;;
37451;SDS011;23314;51.114;6.900;2024-03-22T12:47:34;20.33;;;15.10;;
37451;SDS011;23314;51.114;6.900;2024-03-22T12:49:59;17.65;;;15.50;;
37451;SDS011;23314;51.114;6.900;2024-03-22T12:52:25;17.35;;;15.02;;
37451;SDS011;23314;51.114;6.900;2024-03-22T12:54:50;17.73;;;15.25;;
37451;SDS011;23314;51.114;6.900;2024-03-22T12:57:15;18.95;;;15.00;;
37451;SDS011;23314;51.114;6.900;2024-03-22T12:59:41;19.95;;;16.23;;
37451;SDS011;23314;51.114;6.900;2024-03-22T13:02:06;24.10;;;16.00;;
37451;SDS011;23314;51.114;6.900;2024-03-22T13:04:32;16.90;;;15.13;;
37451;SDS011;23314;51.114;6.900;2024-03-22T13:06:58;23.85;;;17.10;;
37451;SDS011;23314;51.114;6.900;2024-03-22T13:09:23;18.70;;;15.07;;
37451;SDS011;23314;51.114;6.900;2024-03-22T13:11:49;17.00;;;14.38;;
37451;SDS011;23314;51.114;6.900;2024-03-22T13:14:14;16.88;;;14.40;;
37451;SDS011;23314;51.114;6.900;2024-03-22T13:16:40;17.60;;;13.07;;
37451;SDS011;23314;51.114;6.900;2024-03-22T13:19:06;17.85;;;11.98;;
37451;SDS011;23314;51.114;6.900;2024-03-22T13:21:33;15.57;;;12.43;;
37451;SDS011;23314;51.114;6.900;2024-03-22T13:23:59;14.20;;;12.63;;
37451;SDS011;23314;51.114;6.900;2024-03-22T13:26:24;12.88;;;10.95;;
37451;SDS011;23314;51.114;6.900;2024-03-22T13:28:50;20.02;;;14.73;;
37451;SDS011;23314;51.114;6.900;2024-03-22T13:31:16;15.70;;;13.90;;
37451;SDS011;23314;51.114;6.900;2024-03-22T13:33:42;15.07;;;13.43;;
37451;SDS011;23314;51.114;6.900;2024-03-22T13:36:07;18.70;;;13.98;;
37451;SDS011;23314;51.114;6.900;2024-03-22T13:38:32;15.73;;;14.07;;
37451;SDS011;23314;51.114;6.900;2024-03-22T13:40:58;14.60;;;12.80;;
37451;SDS011;23314;51.114;6.900;2024-03-22T13:43:25;15.77;;;12.98;;
37451;SDS011;23314;51.114;6.900;2024-03-22T13:45:52;21.98;;;13.98;;
37451;SDS011;23314;51.114;6.900;2024-03-22T13:48:19;15.77;;;13.45;;
37451;SDS011;23314;51.114;6.900;2024-03-22T13:50:48;18.55;;;14.38;;
37451;SDS011;23314;51.114;6.900;2024-03-22T13:53:14;21.45;;;14.52;;
37451;SDS011;23314;51.114;6.900;2024-03-22T13:55:40;18.50;;;13.25;;
37451;SDS011;23314;51.114;6.900;2024-03-22T13:58:07;15.80;;;12.05;;
37451;SDS011;23314;51.114;6.900;2024-03-22T14:00:33;17.05;;;12.50;;
37451;SDS011;23314;51.114;6.900;2024-03-22T14:02:58;13.20;;;11.53;;
37451;SDS011;23314;51.114;6.900;2024-03-22T14:05:24;16.65;;;13.73;;
37451;SDS011;23314;51.114;6.900;2024-03-22T14:07:50;16.30;;;13.87;;
37451;SDS011;23314;51.114;6.900;2024-03-22T14:10:15;15.30;;;12.93;;
37451;SDS011;23314;51.114;6.900;2024-03-22T14:12:41;15.03;;;11.83;;